Station Historical Data
Daily Summary for January 15, 2018 Units:  English    Metric   Both
« Previous Day
Next Day »
Daily Weekly Monthly Yearly Custom
  High: Low: Average:
Temperature: 29.2 °F 13.0 °F 22.9 °F
Dew Point: 22.9 °F 8.3 °F 16.6 °F
Humidity: 82 % 67 % 77 %
Wind Speed: 4.0 mph 0.0 mph 0.2 mph
Wind Gust: 7.0 mph - -
Wind:- - ESE
Pressure: 30.68 in 30.52 in -
Precipitation: 0.00 in    
Historical Graphs
 
 
Tabular Data for January 15, 2018
Time Temperature Dew Point Pressure Wind Wind Speed Wind Gust Humidity Rainfall Rate (Hourly)
00:02 17.9 °F 8.8 °F 30.68 in Calm   3.0 mph 67 % 0.00 in
00:08 17.7 °F 8.7 °F 30.68 in Calm   1.0 mph 67 % 0.00 in
00:14 17.5 °F 8.8 °F 30.68 in Calm   2.0 mph 68 % 0.00 in
00:19 17.3 °F 8.6 °F 30.68 in Calm   2.0 mph 68 % 0.00 in
00:38 17.0 °F 8.6 °F 30.68 in Calm   1.0 mph 69 % 0.00 in
00:52 16.7 °F 10.5 °F 30.68 in Calm   1.0 mph 76 % 0.00 in
01:11 16.5 °F 8.5 °F 30.68 in Calm     70 % 0.00 in
01:34 16.0 °F 9.2 °F 30.68 in Calm     74 % 0.00 in
02:17 15.1 °F 8.6 °F 30.68 in Calm   1.0 mph 75 % 0.00 in
02:27 14.9 °F 8.4 °F 30.68 in Calm     75 % 0.00 in
02:34 14.9 °F 8.7 °F 30.67 in Calm     76 % 0.00 in
02:45 14.8 °F 8.6 °F 30.67 in Calm     76 % 0.00 in
03:04 14.4 °F 8.5 °F 30.67 in Calm     77 % 0.00 in
03:24 14.3 °F 8.7 °F 30.66 in Calm     78 % 0.00 in
03:31 14.1 °F 8.8 °F 30.66 in Calm     79 % 0.00 in
03:39 13.8 °F 8.5 °F 30.66 in Calm     79 % 0.00 in
04:07 13.0 °F 8.3 °F 30.65 in Calm     81 % 0.00 in
04:12 13.0 °F 8.3 °F 30.65 in Calm     81 % 0.00 in
04:34 13.1 °F 8.6 °F 30.64 in Calm     82 % 0.00 in
04:40 13.2 °F 8.7 °F 30.64 in Calm     82 % 0.00 in
04:54 13.8 °F 9.3 °F 30.64 in Calm   1.0 mph 82 % 0.00 in
05:01 14.0 °F 9.5 °F 30.65 in Calm   1.0 mph 82 % 0.00 in
05:06 14.1 °F 9.3 °F 30.65 in Calm   1.0 mph 81 % 0.00 in
05:13 14.5 °F 9.7 °F 30.65 in Calm   3.0 mph 81 % 0.00 in
05:19 14.8 °F 9.7 °F 30.65 in Calm   3.0 mph 80 % 0.00 in
05:24 15.0 °F 9.7 °F 30.65 in Calm   3.0 mph 79 % 0.00 in
05:57 15.4 °F 9.5 °F 30.65 in Calm   2.0 mph 77 % 0.00 in
06:09 15.4 °F 9.5 °F 30.65 in Calm   4.0 mph 77 % 0.00 in
06:27 15.6 °F 9.4 °F 30.64 in Calm   3.0 mph 76 % 0.00 in
06:41 15.5 °F 9.0 °F 30.64 in Calm   3.0 mph 75 % 0.00 in
06:47 15.5 °F 9.0 °F 30.64 in Calm   3.0 mph 75 % 0.00 in
06:53 15.5 °F 9.0 °F 30.64 in Calm   2.0 mph 75 % 0.00 in
06:59 15.5 °F 9.3 °F 30.64 in Calm   3.0 mph 76 % 0.00 in
07:13 15.8 °F 9.6 °F 30.64 in Calm   3.0 mph 76 % 0.00 in
07:21 15.8 °F 9.6 °F 30.64 in Calm   3.0 mph 76 % 0.00 in
07:27 15.9 °F 9.7 °F 30.64 in WNW 3.0 mph 5.0 mph 76 % 0.00 in
07:36 16.0 °F 9.8 °F 30.63 in Calm   5.0 mph 76 % 0.00 in
07:47 16.1 °F 9.9 °F 30.64 in Calm   4.0 mph 76 % 0.00 in
07:56 16.3 °F 10.1 °F 30.64 in Calm   4.0 mph 76 % 0.00 in
08:15 16.7 °F 10.5 °F 30.64 in ENE 1.0 mph 4.0 mph 76 % 0.00 in
08:36 17.7 °F 11.4 °F 30.65 in WNW 1.0 mph 5.0 mph 76 % 0.00 in
08:42 18.0 °F 11.7 °F 30.65 in NNE 2.0 mph 5.0 mph 76 % 0.00 in
08:55 18.9 °F 12.3 °F 30.66 in East 2.0 mph 5.0 mph 75 % 0.00 in
09:01 19.3 °F 12.7 °F 30.66 in Calm   5.0 mph 75 % 0.00 in
09:06 19.6 °F 13.0 °F 30.66 in Calm   5.0 mph 75 % 0.00 in
09:24 20.5 °F 13.6 °F 30.66 in West 4.0 mph 5.0 mph 74 % 0.00 in
09:30 20.7 °F 14.1 °F 30.66 in Calm   5.0 mph 75 % 0.00 in
09:44 21.5 °F 14.5 °F 30.66 in Calm   5.0 mph 74 % 0.00 in
09:56 21.8 °F 14.8 °F 30.66 in Calm   6.0 mph 74 % 0.00 in
10:23 22.9 °F 15.6 °F 30.65 in NNE 1.0 mph 7.0 mph 73 % 0.00 in
10:32 23.3 °F 16.3 °F 30.65 in Calm   7.0 mph 74 % 0.00 in
10:39 23.6 °F 16.6 °F 30.65 in NNE 1.0 mph 6.0 mph 74 % 0.00 in
11:03 24.7 °F 17.3 °F 30.64 in Calm   7.0 mph 73 % 0.00 in
11:49 26.1 °F 18.3 °F 30.61 in Calm   5.0 mph 72 % 0.00 in
12:05 26.5 °F 19.1 °F 30.60 in Calm   4.0 mph 73 % 0.00 in
12:12 26.6 °F 19.2 °F 30.60 in Calm   4.0 mph 73 % 0.00 in
12:35 26.8 °F 19.3 °F 30.59 in Calm   5.0 mph 73 % 0.00 in
12:41 26.7 °F 19.3 °F 30.58 in Calm   5.0 mph 73 % 0.00 in
12:59 26.8 °F 19.7 °F 30.57 in Calm   6.0 mph 74 % 0.00 in
13:13 27.0 °F 19.9 °F 30.57 in North 1.0 mph 4.0 mph 74 % 0.00 in
13:24 27.4 °F 20.6 °F 30.56 in Calm   4.0 mph 75 % 0.00 in
13:35 27.7 °F 20.5 °F 30.56 in Calm   3.0 mph 74 % 0.00 in
13:42 27.9 °F 20.7 °F 30.56 in Calm   3.0 mph 74 % 0.00 in
13:54 28.4 °F 20.9 °F 30.54 in Calm   3.0 mph 73 % 0.00 in
14:07 28.9 °F 21.4 °F 30.54 in ENE 1.0 mph 3.0 mph 73 % 0.00 in
14:20 28.8 °F 21.3 °F 30.53 in Calm   6.0 mph 73 % 0.00 in
14:46 28.8 °F 21.9 °F 30.54 in Calm   4.0 mph 75 % 0.00 in
15:08 28.6 °F 21.7 °F 30.52 in Calm   4.0 mph 75 % 0.00 in
15:15 28.8 °F 22.2 °F 30.53 in Calm   2.0 mph 76 % 0.00 in
15:26 29.2 °F 22.6 °F 30.52 in Calm   2.0 mph 76 % 0.00 in
15:46 29.0 °F 22.1 °F 30.53 in Calm   3.0 mph 75 % 0.00 in
15:47 29.0 °F 22.4 °F 30.53 in Calm   3.0 mph 76 % 0.00 in
15:48 29.0 °F 22.4 °F 30.53 in Calm   3.0 mph 76 % 0.00 in
15:49 29.0 °F 22.4 °F 30.53 in Calm   3.0 mph 76 % 0.00 in
15:50 29.0 °F 22.4 °F 30.53 in Calm   3.0 mph 76 % 0.00 in
15:51 29.1 °F 22.5 °F 30.53 in Calm   2.0 mph 76 % 0.00 in
15:56 29.1 °F 22.5 °F 30.53 in Calm   3.0 mph 76 % 0.00 in
15:57 29.1 °F 22.5 °F 30.53 in Calm   3.0 mph 76 % 0.00 in
16:03 29.0 °F 22.4 °F 30.53 in Calm   3.0 mph 76 % 0.00 in
16:05 29.0 °F 22.4 °F 30.53 in Calm   3.0 mph 76 % 0.00 in
16:09 29.0 °F 22.7 °F 30.53 in East 1.0 mph 3.0 mph 77 % 0.00 in
16:16 29.0 °F 22.7 °F 30.53 in Calm   2.0 mph 77 % 0.00 in
16:45 28.6 °F 22.3 °F 30.55 in Calm   2.0 mph 77 % 0.00 in
16:52 28.6 °F 22.6 °F 30.55 in Calm   1.0 mph 78 % 0.00 in
16:58 28.5 °F 22.5 °F 30.54 in Calm   1.0 mph 78 % 0.00 in
17:18 28.1 °F 22.1 °F 30.54 in Calm   1.0 mph 78 % 0.00 in
17:25 28.1 °F 22.1 °F 30.55 in Calm   2.0 mph 78 % 0.00 in
17:33 28.0 °F 22.0 °F 30.55 in Calm   2.0 mph 78 % 0.00 in
17:38 27.9 °F 21.9 °F 30.55 in Calm   2.0 mph 78 % 0.00 in
17:43 27.8 °F 21.8 °F 30.55 in Calm   1.0 mph 78 % 0.00 in
18:18 27.5 °F 21.9 °F 30.55 in Calm   1.0 mph 79 % 0.00 in
18:39 27.4 °F 21.8 °F 30.55 in Calm     79 % 0.00 in
18:48 27.3 °F 21.7 °F 30.54 in Calm     79 % 0.00 in
18:56 27.3 °F 21.7 °F 30.55 in Calm     79 % 0.00 in
19:23 27.2 °F 21.6 °F 30.53 in Calm     79 % 0.00 in
19:37 27.2 °F 21.9 °F 30.54 in Calm   1.0 mph 80 % 0.00 in
19:43 27.2 °F 21.9 °F 30.55 in Calm   1.0 mph 80 % 0.00 in
19:50 27.3 °F 21.9 °F 30.55 in Calm     80 % 0.00 in
20:57 27.7 °F 22.3 °F 30.54 in Calm     80 % 0.00 in
21:03 27.8 °F 22.4 °F 30.54 in Calm     80 % 0.00 in
21:09 27.8 °F 22.4 °F 30.54 in Calm     80 % 0.00 in
21:20 27.8 °F 22.4 °F 30.54 in Calm   1.0 mph 80 % 0.00 in
21:26 27.9 °F 22.5 °F 30.54 in Calm   1.0 mph 80 % 0.00 in
21:32 27.9 °F 22.5 °F 30.54 in Calm   1.0 mph 80 % 0.00 in
21:38 27.9 °F 22.5 °F 30.54 in Calm   1.0 mph 80 % 0.00 in
21:49 27.9 °F 22.8 °F 30.54 in Calm   1.0 mph 81 % 0.00 in
22:03 27.9 °F 22.5 °F 30.53 in Calm   1.0 mph 80 % 0.00 in
22:10 27.9 °F 22.5 °F 30.53 in Calm     80 % 0.00 in
22:24 27.9 °F 22.5 °F 30.53 in Calm     80 % 0.00 in
22:40 27.9 °F 22.5 °F 30.53 in Calm     80 % 0.00 in
22:46 28.0 °F 22.6 °F 30.53 in Calm     80 % 0.00 in
23:00 28.1 °F 22.7 °F 30.53 in Calm     80 % 0.00 in
23:06 28.1 °F 22.7 °F 30.54 in Calm     80 % 0.00 in
23:29 28.3 °F 22.9 °F 30.53 in Calm   2.0 mph 80 % 0.00 in
23:34 28.3 °F 22.9 °F 30.53 in Calm   1.0 mph 80 % 0.00 in
23:40 28.3 °F 22.9 °F 30.53 in Calm   1.0 mph 80 % 0.00 in
MarylandWx.com
Compliments of Weather Underground - 5.5 mb